Hlavní strana
METAR-TAF:

METAR-TAF

Letiště :

Rovaniemi, Finsko

zeměpisná šířka: 66-34N, zeměpisná délka: 025-50E, výška: 197 m

Aktuální stav počasí

Zpráva byla vytvořena před 21 minutami, v 19:50 UTC
Jihozápadní vítr 12 kt
Teplota 0°C
Vlhkost vzduchu 93%
Tlak 1010 hPa
Viditelnost 10 km a více
Zataženo ve výšce 300 ft
slabé sněhové přeháňky

METAR: EFRO 131950Z AUTO 22012KT 9999 -SHSN OVC003 M00/M01 Q1010

Čas: 23:11 (20:11 UTC)

Předpověď počasí

Zpráva byla vytvořena před 2 hodinami a 4 minutami, v 18:07 UTC
Předpověď platná od 13 v 18 UTC do 14 v 18 UTC
Jihojihozápadní vítr 14 kt
Viditelnost 10 km a více
Oblačno až skoro zataženo ve výšce 500 ft
Dočasný
od 13 v 18 UTC do 13 v 24 UTC
Viditelnost: 3000 m
Zataženo ve výšce 200 ft
(slabý) mrznoucí, mrholení
Změna
od 14 v 00 UTC do 14 v 02 UTC
Západní vítr 10 kt
Polojasno ve výšce 1500 ft

TAF: EFRO 131807Z 1318/1418 21014KT 9999 BKN005 TEMPO 1318/1324 3000 -FZDZ OVC002 BECMG 1400/1402 27010KT SCT015

Stav a předpovědi počasí z více než 4 000 letišť (zprávy METAR a TAF).

Červené a žluté tečky na mapě představují dostupné meteorologické stanice.

Když kurzor umístíte na tečku, zobrazí se název stanice.

Pak kliknutím zobrazíte stav a předpověď počasí.

Chcete-li změnit mapu, kliknutím na zelené tlačítko se znaménkem +mapu přiblížíte, kliknutím na zelené tlačítko se znaménkem – mapu oddálíte a kliknutím na zelené šipky přejdete na sousední mapy.


METAR-TAF: